Time;durP1;ratioP1;P1;durP2;ratioP2;P2;SDS_P1;SDS_P2;PMS_P1;PMS_P2;Temp;Humidity;BMP_temperature;BMP_pressure;BME280_temperature;BME280_humidity;BME280_pressure;Samples;Min_cycle;Max_cycle;Signal;HPM_P1;HPM_P2
2023/05/19 00:01:15;;;;;;;17.48;10.13;;;12.90;99.90;;;;;;4918114;29;20027;-74
2023/05/19 00:03:53;;;;;;;21.33;9.73;;;12.90;99.90;;;;;;4917585;29;20111;-75
2023/05/19 00:06:30;;;;;;;18.67;10.07;;;12.90;99.90;;;;;;4934473;29;20047;-73
2023/05/19 00:09:04;;;;;;;19.48;9.57;;;12.90;99.90;;;;;;4936192;29;20032;-74
2023/05/19 00:11:30;;;;;;;17.75;9.82;;;12.90;99.90;;;;;;4931300;29;20143;-74
2023/05/19 00:13:58;;;;;;;20.42;10.85;;;12.90;99.90;;;;;;4918492;29;20035;-74
2023/05/19 00:16:26;;;;;;;19.13;9.98;;;12.80;99.90;;;;;;4935630;29;20036;-74
2023/05/19 00:18:52;;;;;;;18.58;9.48;;;12.80;99.90;;;;;;4944477;29;20061;-74
2023/05/19 00:21:19;;;;;;;17.98;9.70;;;12.80;99.90;;;;;;4906866;29;20405;-73
2023/05/19 00:23:45;;;;;;;21.65;10.88;;;12.80;99.90;;;;;;4919315;29;20093;-75
2023/05/19 00:26:11;;;;;;;18.60;9.93;;;12.80;99.90;;;;;;4932021;29;20027;-74
2023/05/19 00:28:39;;;;;;;18.52;9.73;;;12.80;99.90;;;;;;4915749;29;20032;-73
2023/05/19 00:31:06;;;;;;;18.55;9.30;;;12.80;99.90;;;;;;4934449;29;20042;-74
2023/05/19 00:33:32;;;;;;;19.65;10.15;;;12.80;99.90;;;;;;4916818;29;20028;-74
2023/05/19 00:36:02;;;;;;;18.20;9.75;;;12.70;99.90;;;;;;4931160;29;20028;-74
2023/05/19 00:38:29;;;;;;;20.23;10.02;;;12.70;99.90;;;;;;4913738;29;20040;-74
2023/05/19 00:40:55;;;;;;;18.85;10.75;;;12.70;99.90;;;;;;4924917;29;20020;-74
2023/05/19 00:43:21;;;;;;;20.92;9.90;;;12.80;99.90;;;;;;4913930;29;20522;-74
2023/05/19 00:45:47;;;;;;;16.83;10.07;;;12.70;99.90;;;;;;4917938;29;20027;-74
2023/05/19 00:48:13;;;;;;;17.75;8.82;;;12.80;99.90;;;;;;4917717;29;20038;-73
2023/05/19 00:50:39;;;;;;;16.90;8.57;;;12.80;99.90;;;;;;4917876;29;20027;-74
2023/05/19 00:53:06;;;;;;;17.23;9.02;;;12.80;99.90;;;;;;4930106;29;20075;-73
2023/05/19 00:55:33;;;;;;;17.13;10.15;;;12.80;99.90;;;;;;4915261;29;20377;-76
2023/05/19 00:57:59;;;;;;;17.15;9.05;;;12.80;99.90;;;;;;4914604;29;20039;-75
2023/05/19 01:00:25;;;;;;;17.73;9.18;;;12.80;99.90;;;;;;4917947;29;20557;-73
2023/05/19 01:02:52;;;;;;;18.75;10.45;;;12.90;99.90;;;;;;4897448;29;20127;-73
2023/05/19 01:05:18;;;;;;;19.33;9.90;;;12.90;99.90;;;;;;4913713;29;20472;-74
2023/05/19 01:07:45;;;;;;;15.80;8.68;;;12.90;99.90;;;;;;4914700;29;20035;-74
2023/05/19 01:10:11;;;;;;;18.38;9.30;;;12.80;99.90;;;;;;4899203;29;20122;-72
2023/05/19 01:12:39;;;;;;;18.52;9.10;;;12.90;99.90;;;;;;4914094;29;20142;-73
2023/05/19 01:15:05;;;;;;;19.35;9.35;;;12.80;99.90;;;;;;4914760;29;20028;-73
2023/05/19 01:18:10;;;;;;;17.95;9.15;;;12.80;99.90;;;;;;4897765;29;20032;-73
2023/05/19 01:20:45;;;;;;;20.27;8.82;;;12.70;99.90;;;;;;4900089;29;20039;-73
2023/05/19 01:23:39;;;;;;;17.85;10.00;;;12.80;99.90;;;;;;4914696;29;20031;-73
2023/05/19 01:26:46;;;;;;;19.60;9.85;;;12.80;99.90;;;;;;4914537;29;20028;-74
2023/05/19 01:29:41;;;;;;;19.73;9.57;;;12.80;99.90;;;;;;4897657;29;20032;-74
2023/05/19 01:32:09;;;;;;;17.40;9.45;;;12.80;99.90;;;;;;4914635;29;20103;-74
2023/05/19 01:34:41;;;;;;;17.00;9.57;;;12.80;99.90;;;;;;4914385;29;20483;-74
2023/05/19 01:37:08;;;;;;;22.35;9.88;;;12.80;99.90;;;;;;4913258;29;20032;-74
2023/05/19 01:39:35;;;;;;;19.33;9.55;;;12.70;99.90;;;;;;4914332;29;20671;-74
2023/05/19 01:42:02;;;;;;;15.82;8.95;;;12.80;99.90;;;;;;4914197;29;20028;-74
2023/05/19 01:44:28;;;;;;;19.02;10.32;;;12.80;99.90;;;;;;4914590;29;20421;-75
2023/05/19 01:46:55;;;;;;;18.75;9.40;;;12.80;99.90;;;;;;4914212;29;20035;-74
2023/05/19 01:49:22;;;;;;;19.70;9.27;;;12.80;99.90;;;;;;4897373;29;20032;-73
2023/05/19 01:51:48;;;;;;;19.20;8.90;;;12.80;99.90;;;;;;4897109;29;20502;-75
2023/05/19 01:54:14;;;;;;;17.38;9.70;;;12.70;99.90;;;;;;4914391;29;20040;-74
2023/05/19 01:56:54;;;;;;;16.10;8.80;;;12.80;99.90;;;;;;4914095;29;20074;-73
2023/05/19 01:59:43;;;;;;;19.33;9.52;;;12.80;99.90;;;;;;4908721;29;20090;-74
2023/05/19 02:02:35;;;;;;;16.95;8.77;;;12.70;99.90;;;;;;4896319;29;20119;-73
2023/05/19 02:05:16;;;;;;;19.85;9.85;;;12.70;99.90;;;;;;4914410;29;20079;-74
2023/05/19 02:07:55;;;;;;;18.63;9.25;;;12.70;99.90;;;;;;4897294;29;20055;-76
2023/05/19 02:10:31;;;;;;;16.77;8.50;;;12.70;99.90;;;;;;4913898;29;20031;-74
2023/05/19 02:13:03;;;;;;;17.63;9.55;;;12.70;99.90;;;;;;4914157;29;20416;-73
2023/05/19 02:15:37;;;;;;;20.88;10.43;;;12.70;99.90;;;;;;4897093;29;20036;-73
2023/05/19 02:18:04;;;;;;;21.52;9.90;;;12.70;99.90;;;;;;4910041;29;20044;-74
2023/05/19 02:20:30;;;;;;;19.23;9.75;;;12.70;99.90;;;;;;4898850;29;20092;-74
2023/05/19 02:22:56;;;;;;;19.15;10.18;;;12.80;99.90;;;;;;4913986;29;20061;-74
2023/05/19 02:25:23;;;;;;;18.83;10.55;;;12.80;99.90;;;;;;4916081;29;20031;-75
2023/05/19 02:27:51;;;;;;;18.15;9.48;;;12.80;99.90;;;;;;4917721;29;20433;-73
2023/05/19 02:30:16;;;;;;;17.42;9.38;;;12.80;99.90;;;;;;4921730;29;20032;-75
2023/05/19 02:32:45;;;;;;;23.00;10.93;;;12.80;99.90;;;;;;4917596;29;20036;-74
2023/05/19 02:35:12;;;;;;;20.48;10.57;;;12.80;99.90;;;;;;4906407;29;20495;-74
2023/05/19 02:37:38;;;;;;;18.05;10.68;;;12.80;99.90;;;;;;4921050;29;20064;-74
2023/05/19 02:40:05;;;;;;;21.70;10.27;;;12.80;99.90;;;;;;4916317;29;20522;-75
2023/05/19 02:42:31;;;;;;;19.88;10.23;;;12.80;99.90;;;;;;4917088;29;20452;-74
2023/05/19 02:44:56;;;;;;;21.92;10.50;;;12.80;99.90;;;;;;4919509;29;20035;-74
2023/05/19 02:47:22;;;;;;;20.50;11.00;;;12.80;99.90;;;;;;4917406;29;20403;-74
2023/05/19 02:49:48;;;;;;;18.98;9.77;;;12.80;99.90;;;;;;4917153;29;20055;-73
2023/05/19 02:52:14;;;;;;;21.05;9.90;;;12.80;99.90;;;;;;4917553;29;20032;-74
2023/05/19 02:54:40;;;;;;;20.30;10.77;;;12.80;99.90;;;;;;4915884;29;20032;-73
2023/05/19 02:57:06;;;;;;;20.85;10.18;;;12.90;99.90;;;;;;4900266;29;20763;-74
2023/05/19 02:59:32;;;;;;;18.88;10.52;;;12.80;99.90;;;;;;4915801;29;20194;-74
2023/05/19 03:02:01;;;;;;;24.50;12.23;;;12.80;99.90;;;;;;4916188;29;20181;-73
2023/05/19 03:04:30;;;;;;;25.15;12.15;;;12.80;99.90;;;;;;4916917;29;20392;-74
2023/05/19 03:06:56;;;;;;;23.25;13.95;;;12.80;99.90;;;;;;4917087;29;20476;-73
2023/05/19 03:09:22;;;;;;;26.85;14.02;;;12.80;99.90;;;;;;4916879;29;20388;-73
2023/05/19 03:11:48;;;;;;;29.38;15.55;;;12.80;99.90;;;;;;4899744;29;20115;-73
2023/05/19 03:14:14;;;;;;;35.67;14.23;;;12.70;99.90;;;;;;4917072;29;20044;-74
2023/05/19 03:16:40;;;;;;;31.27;13.55;;;12.70;99.90;;;;;;4919310;29;20052;-74
2023/05/19 03:19:07;;;;;;;29.42;15.10;;;12.70;99.90;;;;;;4901528;29;20036;-74
2023/05/19 03:21:33;;;;;;;26.85;14.00;;;12.70;99.90;;;;;;4915545;29;20032;-74
2023/05/19 03:24:00;;;;;;;28.25;13.82;;;12.70;99.90;;;;;;4917187;29;20597;-73
2023/05/19 03:26:28;;;;;;;24.23;13.23;;;12.70;99.90;;;;;;4929081;29;20534;-73
2023/05/19 03:28:55;;;;;;;25.77;13.55;;;12.70;99.90;;;;;;4924847;29;20028;-73
2023/05/19 03:31:21;;;;;;;28.73;14.30;;;12.60;99.90;;;;;;4918958;29;20038;-73
2023/05/19 03:33:46;;;;;;;24.73;12.57;;;12.70;99.90;;;;;;4936976;29;20111;-74
2023/05/19 03:36:12;;;;;;;25.58;12.95;;;12.70;99.90;;;;;;4935290;29;20059;-73
2023/05/19 03:38:38;;;;;;;22.92;12.10;;;12.70;99.90;;;;;;4919419;29;20094;-73
2023/05/19 03:41:04;;;;;;;23.08;12.30;;;12.70;99.90;;;;;;4919310;29;20424;-73
2023/05/19 03:43:30;;;;;;;22.50;11.68;;;12.70;99.90;;;;;;4936504;29;20035;-74
2023/05/19 03:46:01;;;;;;;20.35;10.75;;;12.90;99.90;;;;;;4919501;29;20139;-75
2023/05/19 03:48:50;;;;;;;20.08;10.88;;;12.90;99.90;;;;;;4896867;29;20037;-74
2023/05/19 03:51:31;;;;;;;17.15;9.88;;;12.90;99.90;;;;;;4896414;29;20029;-74
2023/05/19 03:54:07;;;;;;;18.08;9.95;;;12.90;99.90;;;;;;4896446;29;20033;-74
2023/05/19 03:56:37;;;;;;;23.48;10.52;;;12.90;99.90;;;;;;4896065;29;20036;-73
2023/05/19 03:59:06;;;;;;;16.50;9.02;;;12.90;99.90;;;;;;4896379;29;20052;-74
2023/05/19 04:01:33;;;;;;;23.10;10.15;;;12.90;99.90;;;;;;4896266;29;20173;-74
2023/05/19 04:03:59;;;;;;;21.38;9.38;;;13.00;99.90;;;;;;4896031;29;20036;-74
2023/05/19 04:06:25;;;;;;;19.05;10.30;;;13.00;99.90;;;;;;4896482;29;20493;-73
2023/05/19 04:08:50;;;;;;;17.88;9.95;;;13.00;99.90;;;;;;4880558;29;20028;-74
2023/05/19 04:11:18;;;;;;;19.00;8.68;;;13.00;99.90;;;;;;4895890;29;20048;-74
2023/05/19 04:13:47;;;;;;;18.13;8.93;;;13.00;99.90;;;;;;4879428;29;20045;-75
2023/05/19 04:16:13;;;;;;;17.75;9.60;;;13.10;99.90;;;;;;4887511;29;20137;-74
2023/05/19 04:18:41;;;;;;;17.33;8.95;;;13.10;99.90;;;;;;4883783;29;20052;-73
2023/05/19 04:21:07;;;;;;;20.25;9.23;;;13.10;99.90;;;;;;4880041;29;20024;-74
2023/05/19 04:23:33;;;;;;;16.73;8.70;;;13.10;99.90;;;;;;4880445;29;20029;-74
2023/05/19 04:26:00;;;;;;;15.82;7.70;;;13.10;99.90;;;;;;4918449;29;20119;-75
2023/05/19 04:28:26;;;;;;;18.13;8.63;;;13.10;99.90;;;;;;4918843;29;20034;-74
2023/05/19 04:30:52;;;;;;;20.85;9.23;;;13.20;99.90;;;;;;4918510;29;20039;-75
2023/05/19 04:33:18;;;;;;;17.85;8.95;;;13.10;99.90;;;;;;4918722;29;20114;-76
2023/05/19 04:35:45;;;;;;;15.98;7.75;;;13.20;99.90;;;;;;4918205;29;20448;-76
2023/05/19 04:38:12;;;;;;;16.30;8.35;;;13.20;99.90;;;;;;4935573;29;20063;-75
2023/05/19 04:40:41;;;;;;;15.07;7.72;;;13.20;99.90;;;;;;4927111;29;20058;-76
2023/05/19 04:43:08;;;;;;;17.58;7.60;;;13.20;99.90;;;;;;4926782;29;20028;-75
2023/05/19 04:45:36;;;;;;;19.10;8.50;;;13.10;99.90;;;;;;4918659;29;20056;-76
2023/05/19 04:48:03;;;;;;;17.75;8.57;;;13.10;99.90;;;;;;4917960;29;20063;-76
2023/05/19 04:50:31;;;;;;;17.52;8.68;;;13.20;99.90;;;;;;4935115;29;20031;-76
2023/05/19 04:52:58;;;;;;;16.05;8.15;;;13.10;99.90;;;;;;4918247;29;20035;-75
2023/05/19 04:55:24;;;;;;;15.82;7.93;;;13.10;99.90;;;;;;4933441;29;20028;-75
2023/05/19 04:57:50;;;;;;;18.10;8.43;;;13.00;99.90;;;;;;4918147;29;20040;-76
2023/05/19 05:00:19;;;;;;;17.48;8.40;;;13.10;99.90;;;;;;4918541;29;20024;-75
2023/05/19 05:02:52;;;;;;;15.38;7.40;;;13.10;99.90;;;;;;4918247;29;20480;-76
2023/05/19 05:05:20;;;;;;;17.23;8.18;;;13.00;99.90;;;;;;4918159;29;20027;-76
2023/05/19 05:07:46;;;;;;;17.85;9.15;;;13.10;99.90;;;;;;4935418;29;20502;-76
2023/05/19 05:10:12;;;;;;;17.73;8.88;;;13.10;99.90;;;;;;4917888;29;20480;-76
2023/05/19 05:12:39;;;;;;;15.40;8.13;;;13.10;99.90;;;;;;4917012;29;20138;-76
2023/05/19 05:15:05;;;;;;;17.95;8.90;;;13.20;99.90;;;;;;4917949;29;20080;-75
2023/05/19 05:17:34;;;;;;;15.68;8.55;;;13.20;99.90;;;;;;4935014;29;20028;-75
2023/05/19 05:20:03;;;;;;;15.90;7.55;;;13.20;99.90;;;;;;4917553;29;20362;-75
2023/05/19 05:22:29;;;;;;;19.90;8.90;;;13.20;99.90;;;;;;4912639;29;20115;-76
2023/05/19 05:24:56;;;;;;;20.10;9.18;;;13.10;99.90;;;;;;4918112;29;20115;-76
2023/05/19 05:27:21;;;;;;;19.20;8.23;;;13.10;99.90;;;;;;4916691;29;20074;-75
2023/05/19 05:29:48;;;;;;;19.30;9.05;;;13.10;99.90;;;;;;4917907;29;20063;-76
2023/05/19 05:32:15;;;;;;;18.85;9.25;;;13.20;99.90;;;;;;4931724;29;20043;-75
2023/05/19 05:34:42;;;;;;;17.08;9.02;;;13.20;99.90;;;;;;4908247;29;20031;-75
2023/05/19 05:37:08;;;;;;;21.38;8.00;;;13.20;99.90;;;;;;4934169;29;20115;-76
2023/05/19 05:39:35;;;;;;;23.17;9.00;;;13.30;99.90;;;;;;4917768;29;20035;-74
2023/05/19 05:42:01;;;;;;;23.10;9.65;;;13.30;99.90;;;;;;4916865;29;20365;-76
2023/05/19 05:44:27;;;;;;;19.52;9.55;;;13.30;99.90;;;;;;4917225;29;20047;-75
2023/05/19 05:46:53;;;;;;;20.70;9.70;;;13.30;99.90;;;;;;4917563;29;20143;-75
2023/05/19 05:49:20;;;;;;;19.73;10.73;;;13.30;99.90;;;;;;4917320;29;20078;-75
2023/05/19 05:51:46;;;;;;;23.40;9.40;;;13.40;99.90;;;;;;4914335;29;20169;-75
2023/05/19 05:54:15;;;;;;;20.13;10.18;;;13.40;99.90;;;;;;4930006;29;20043;-76
2023/05/19 05:56:44;;;;;;;21.53;10.17;;;13.30;99.90;;;;;;4917401;29;20061;-75
2023/05/19 05:59:12;;;;;;;21.60;10.50;;;13.20;99.90;;;;;;4918804;29;20043;-74
2023/05/19 06:01:37;;;;;;;20.98;10.05;;;13.30;99.90;;;;;;4938184;29;20384;-76
2023/05/19 06:04:06;;;;;;;21.20;9.48;;;13.30;99.90;;;;;;4938223;29;20023;-76
2023/05/19 06:06:32;;;;;;;18.75;10.90;;;13.20;99.90;;;;;;4902364;29;20026;-76
2023/05/19 06:09:00;;;;;;;24.77;11.70;;;13.30;99.90;;;;;;4914824;29;20039;-76
2023/05/19 06:11:27;;;;;;;22.60;10.65;;;13.40;99.90;;;;;;4914732;29;20044;-74
2023/05/19 06:13:55;;;;;;;24.80;12.10;;;13.40;99.90;;;;;;4919564;29;20039;-75
2023/05/19 06:16:41;;;;;;;20.52;10.75;;;13.40;99.90;;;;;;4919144;29;20028;-74
2023/05/19 06:19:07;;;;;;;21.67;10.27;;;13.50;99.90;;;;;;4919226;29;20058;-75
2023/05/19 06:21:33;;;;;;;22.75;10.82;;;13.40;99.90;;;;;;4936492;29;20472;-76
2023/05/19 06:23:59;;;;;;;22.60;9.82;;;13.50;99.90;;;;;;4919883;29;20035;-75
2023/05/19 06:26:25;;;;;;;19.48;10.35;;;13.60;99.90;;;;;;4919825;29;20036;-75
2023/05/19 06:28:51;;;;;;;17.45;8.73;;;13.70;99.90;;;;;;4919405;29;20114;-76
2023/05/19 06:31:17;;;;;;;18.73;8.95;;;13.80;99.90;;;;;;4918700;29;20139;-77
2023/05/19 06:33:52;;;;;;;21.00;8.73;;;13.70;99.90;;;;;;4936927;29;20431;-76
2023/05/19 06:36:19;;;;;;;22.80;9.27;;;13.70;99.90;;;;;;4919484;29;20119;-75
2023/05/19 06:38:46;;;;;;;19.73;9.20;;;13.80;99.90;;;;;;4919313;29;20559;-75
2023/05/19 06:41:12;;;;;;;19.65;10.55;;;13.80;99.90;;;;;;4918820;29;20024;-75
2023/05/19 06:43:37;;;;;;;22.65;9.93;;;13.80;99.90;;;;;;4913962;29;20032;-76
2023/05/19 06:46:03;;;;;;;19.17;9.75;;;13.90;99.90;;;;;;4916698;29;20483;-75
2023/05/19 06:48:31;;;;;;;20.25;10.32;;;14.00;99.90;;;;;;4919609;29;20046;-75
2023/05/19 06:50:58;;;;;;;18.70;9.02;;;14.00;99.90;;;;;;4919307;29;20024;-75
2023/05/19 06:53:24;;;;;;;17.75;9.35;;;14.10;99.90;;;;;;4919598;29;20031;-75
2023/05/19 06:55:51;;;;;;;18.88;9.13;;;14.10;99.90;;;;;;4936343;29;20133;-75
2023/05/19 06:58:20;;;;;;;15.98;8.68;;;14.10;99.90;;;;;;4919549;29;20384;-76
2023/05/19 07:00:46;;;;;;;17.30;7.82;;;14.20;99.90;;;;;;4918905;29;20038;-75
2023/05/19 07:03:15;;;;;;;18.00;9.23;;;14.30;99.90;;;;;;4919001;29;20055;-76
2023/05/19 07:05:41;;;;;;;17.40;9.68;;;14.30;99.90;;;;;;4918662;29;20028;-75
2023/05/19 07:08:07;;;;;;;16.15;8.52;;;14.40;99.90;;;;;;4919107;29;20032;-76
2023/05/19 07:10:34;;;;;;;14.57;8.27;;;14.40;99.90;;;;;;4880376;29;1126515;-76
2023/05/19 07:13:01;;;;;;;18.08;8.18;;;14.50;99.90;;;;;;4919911;29;20031;-75
2023/05/19 07:15:31;;;;;;;16.48;7.80;;;14.50;99.90;;;;;;4919707;29;20030;-74
2023/05/19 07:17:57;;;;;;;14.20;7.78;;;14.50;99.90;;;;;;4919564;29;20075;-76
2023/05/19 07:20:24;;;;;;;16.70;7.68;;;14.60;99.90;;;;;;4920560;29;20401;-76
2023/05/19 07:22:50;;;;;;;16.17;7.32;;;14.50;99.90;;;;;;4936235;29;20023;-75
2023/05/19 07:25:16;;;;;;;16.58;7.40;;;14.60;99.90;;;;;;4919872;29;20214;-76
2023/05/19 07:27:45;;;;;;;14.88;7.97;;;14.60;99.90;;;;;;4919875;29;20058;-76
2023/05/19 07:30:11;;;;;;;16.67;8.18;;;14.60;99.90;;;;;;4936858;29;20468;-75
2023/05/19 07:32:37;;;;;;;17.33;8.38;;;14.70;99.90;;;;;;4936758;29;20020;-75
2023/05/19 07:35:04;;;;;;;16.15;8.13;;;14.70;99.90;;;;;;4927712;29;20480;-75
2023/05/19 07:37:30;;;;;;;16.08;8.27;;;14.80;99.90;;;;;;4936504;29;20058;-76
2023/05/19 07:39:56;;;;;;;17.80;8.63;;;14.80;99.90;;;;;;4936883;29;20472;-75
2023/05/19 07:42:21;;;;;;;14.05;8.35;;;14.80;99.90;;;;;;4918021;29;20047;-75
2023/05/19 07:44:47;;;;;;;16.65;7.55;;;14.80;99.90;;;;;;4936320;29;20036;-74
2023/05/19 07:47:13;;;;;;;15.63;8.43;;;14.90;99.90;;;;;;4936503;29;20028;-76
2023/05/19 07:49:39;;;;;;;15.23;8.15;;;14.80;99.90;;;;;;4936134;29;20179;-75
2023/05/19 07:52:05;;;;;;;18.60;8.73;;;14.90;99.90;;;;;;4936462;29;20114;-74
2023/05/19 07:54:31;;;;;;;16.98;7.88;;;15.00;99.90;;;;;;4936692;29;20043;-76
2023/05/19 07:56:57;;;;;;;15.10;8.32;;;15.10;99.90;;;;;;4935994;29;20027;-76
2023/05/19 07:59:23;;;;;;;13.90;7.82;;;15.10;99.90;;;;;;4936422;29;20131;-75
2023/05/19 08:01:49;;;;;;;18.88;7.75;;;15.30;99.90;;;;;;4929928;29;20106;-75
2023/05/19 08:04:14;;;;;;;17.63;9.45;;;15.30;99.90;;;;;;4936243;29;20148;-76
2023/05/19 08:06:41;;;;;;;18.67;7.63;;;15.30;99.90;;;;;;4919730;29;20043;-75
2023/05/19 08:09:07;;;;;;;15.60;9.20;;;15.40;99.90;;;;;;4936311;29;20478;-75
2023/05/19 08:11:33;;;;;;;16.80;9.30;;;15.50;99.90;;;;;;4936129;29;20051;-76
2023/05/19 08:13:59;;;;;;;13.75;8.07;;;15.40;99.90;;;;;;4936405;29;20095;-76
2023/05/19 08:16:25;;;;;;;16.58;8.80;;;15.50;99.90;;;;;;4936332;29;20028;-76
2023/05/19 08:18:51;;;;;;;17.15;8.95;;;15.40;99.90;;;;;;4936297;29;20051;-76
2023/05/19 08:21:16;;;;;;;14.85;8.25;;;15.50;99.90;;;;;;4935730;29;20024;-77
2023/05/19 08:23:42;;;;;;;18.50;9.07;;;15.60;99.90;;;;;;4935760;29;20452;-76
2023/05/19 08:26:08;;;;;;;17.25;8.93;;;15.40;99.90;;;;;;4936299;29;20024;-75
2023/05/19 08:28:34;;;;;;;13.32;7.20;;;15.40;99.90;;;;;;4935781;29;20031;-76
2023/05/19 08:31:00;;;;;;;17.83;8.82;;;15.30;99.90;;;;;;4935885;29;20035;-76
2023/05/19 08:33:26;;;;;;;18.25;10.07;;;15.30;99.90;;;;;;4935908;29;20035;-75
2023/05/19 08:35:51;;;;;;;16.10;8.85;;;15.40;99.90;;;;;;4923119;29;20035;-76
2023/05/19 08:38:17;;;;;;;17.35;9.00;;;15.40;99.90;;;;;;4932493;29;20047;-76
2023/05/19 08:40:46;;;;;;;16.65;8.15;;;15.30;99.90;;;;;;4935359;29;20459;-76
2023/05/19 08:43:12;;;;;;;14.52;8.05;;;15.40;99.90;;;;;;4935309;29;20043;-76
2023/05/19 08:45:42;;;;;;;14.73;8.75;;;15.40;99.90;;;;;;4935254;29;20024;-76
2023/05/19 08:48:08;;;;;;;19.52;10.45;;;15.40;99.90;;;;;;4935247;29;20367;-76
2023/05/19 08:50:38;;;;;;;16.35;8.75;;;15.40;99.90;;;;;;4918178;29;20191;-75
2023/05/19 08:53:09;;;;;;;15.90;8.55;;;15.50;99.90;;;;;;4935355;29;20036;-74
2023/05/19 08:56:02;;;;;;;23.85;10.45;;;15.50;99.90;;;;;;4935586;29;20428;-76
2023/05/19 08:58:30;;;;;;;17.10;9.10;;;15.50;99.90;;;;;;4923490;29;20483;-75
2023/05/19 09:00:58;;;;;;;14.95;8.55;;;15.40;99.90;;;;;;4935832;29;20024;-75
2023/05/19 09:03:25;;;;;;;16.48;8.55;;;15.50;99.90;;;;;;4935158;29;20027;-76
2023/05/19 09:05:51;;;;;;;18.23;9.45;;;15.60;99.90;;;;;;4935102;29;20032;-77
2023/05/19 09:08:17;;;;;;;13.98;8.20;;;15.70;99.90;;;;;;4935068;29;20031;-76
2023/05/19 09:10:43;;;;;;;14.98;8.50;;;16.00;99.90;;;;;;4935395;29;20484;-77
2023/05/19 09:13:09;;;;;;;16.95;10.13;;;16.20;99.90;;;;;;4935342;29;20110;-75
2023/05/19 09:15:37;;;;;;;18.45;9.07;;;16.30;99.90;;;;;;4934278;29;20027;-74
2023/05/19 09:18:11;;;;;;;16.60;9.32;;;16.40;99.90;;;;;;4934730;29;20554;-75
2023/05/19 09:20:43;;;;;;;17.20;9.50;;;16.50;99.90;;;;;;4934664;29;20103;-76
2023/05/19 09:23:13;;;;;;;15.20;9.05;;;16.60;99.90;;;;;;4935787;29;20039;-76
2023/05/19 09:25:50;;;;;;;16.42;8.55;;;16.80;99.90;;;;;;4934360;29;20027;-76
2023/05/19 09:28:36;;;;;;;15.60;8.48;;;17.00;99.90;;;;;;4934764;29;20476;-76
2023/05/19 09:31:07;;;;;;;16.42;9.50;;;17.30;99.90;;;;;;4926837;29;20364;-76
2023/05/19 09:33:35;;;;;;;15.18;8.35;;;17.40;99.90;;;;;;4933693;29;20042;-75
2023/05/19 09:36:02;;;;;;;14.80;7.78;;;17.40;99.90;;;;;;4932854;29;20035;-75
2023/05/19 09:38:28;;;;;;;13.60;8.27;;;17.40;99.90;;;;;;4924649;29;20139;-76
2023/05/19 09:40:58;;;;;;;15.23;7.70;;;17.90;99.90;;;;;;4917673;29;20075;-76
2023/05/19 09:43:35;;;;;;;13.88;7.90;;;18.10;99.90;;;;;;4934750;29;20506;-75
2023/05/19 09:46:08;;;;;;;14.93;8.00;;;18.50;99.90;;;;;;4934188;29;20383;-75
2023/05/19 09:48:35;;;;;;;14.68;7.88;;;18.60;99.90;;;;;;4933272;29;20032;-76
2023/05/19 09:51:01;;;;;;;13.80;8.05;;;;;;;;;;4934046;29;20130;-75
2023/05/19 09:53:29;;;;;;;19.90;8.93;;;18.70;99.90;;;;;;4932770;29;20070;-77
2023/05/19 09:55:59;;;;;;;16.80;10.20;;;19.00;99.90;;;;;;4933599;29;20039;-76
2023/05/19 09:58:25;;;;;;;15.43;9.52;;;18.80;99.90;;;;;;4924016;29;20047;-75
2023/05/19 10:00:55;;;;;;;15.55;9.50;;;;;;;;;;4934679;29;20024;-76
2023/05/19 10:03:22;;;;;;;14.07;8.55;;;19.80;99.90;;;;;;4934386;29;20047;-76
2023/05/19 10:05:49;;;;;;;12.25;7.53;;;20.10;99.90;;;;;;4934790;29;20035;-76
2023/05/19 10:08:16;;;;;;;14.27;7.20;;;20.10;99.90;;;;;;4934594;29;20498;-76
2023/05/19 10:10:45;;;;;;;13.77;7.65;;;20.40;99.90;;;;;;4934284;29;20452;-76
2023/05/19 10:13:11;;;;;;;17.08;9.30;;;20.10;99.90;;;;;;4933856;29;20058;-76
2023/05/19 10:15:39;;;;;;;14.70;8.18;;;20.70;99.90;;;;;;4934284;29;20048;-77
2023/05/19 10:18:07;;;;;;;14.23;8.13;;;20.70;99.90;;;;;;4934430;29;20502;-76
2023/05/19 10:20:33;;;;;;;14.73;7.95;;;20.70;99.90;;;;;;4934175;29;20030;-76
2023/05/19 10:23:01;;;;;;;13.00;7.60;;;20.40;99.90;;;;;;4934945;29;20082;-76
2023/05/19 10:25:28;;;;;;;12.40;8.52;;;20.60;99.90;;;;;;4934503;29;20053;-77
2023/05/19 10:28:00;;;;;;;13.75;7.68;;;20.80;99.90;;;;;;4930604;29;20059;-76
2023/05/19 10:30:30;;;;;;;15.55;7.88;;;20.90;99.90;;;;;;4899745;29;20134;-78
2023/05/19 10:32:59;;;;;;;12.45;7.75;;;20.70;99.90;;;;;;4929767;29;20078;-77
2023/05/19 10:35:42;;;;;;;13.35;7.47;;;20.70;99.90;;;;;;4943146;29;20055;-77
2023/05/19 10:38:41;;;;;;;13.77;7.78;;;20.90;99.90;;;;;;4935206;29;20067;-76
2023/05/19 10:41:31;;;;;;;12.40;7.63;;;21.10;99.90;;;;;;4934237;29;20023;-77
2023/05/19 10:44:22;;;;;;;12.23;7.20;;;;;;;;;;4930297;28;20028;-77
2023/05/19 10:46:49;;;;;;;11.73;6.93;;;21.40;99.90;;;;;;4934600;29;20039;-77
2023/05/19 10:49:21;;;;;;;11.10;6.75;;;21.10;99.90;;;;;;4920115;29;20024;-77
2023/05/19 10:51:47;;;;;;;11.65;7.32;;;21.40;99.90;;;;;;4937552;29;20032;-76
2023/05/19 10:54:16;;;;;;;15.50;7.57;;;21.50;99.90;;;;;;4937258;29;20043;-76
2023/05/19 10:56:46;;;;;;;16.65;8.68;;;21.40;99.90;;;;;;4928999;29;20040;-77
2023/05/19 10:59:32;;;;;;;14.80;8.48;;;21.00;99.90;;;;;;4937240;29;20436;-77
2023/05/19 11:02:05;;;;;;;11.40;6.88;;;21.20;99.90;;;;;;4933482;29;20043;-77
2023/05/19 11:05:06;;;;;;;12.88;8.05;;;21.20;99.90;;;;;;4934843;29;20035;-77
2023/05/19 11:07:32;;;;;;;15.68;8.30;;;21.00;99.90;;;;;;4937189;29;20040;-76
2023/05/19 11:09:58;;;;;;;12.18;8.70;;;20.90;99.90;;;;;;4937727;29;20037;-77
2023/05/19 11:12:23;;;;;;;13.48;7.75;;;21.00;99.90;;;;;;4936681;29;20047;-77
2023/05/19 11:14:53;;;;;;;13.85;8.25;;;20.60;99.90;;;;;;4936739;29;20040;-76
2023/05/19 11:17:21;;;;;;;12.48;7.55;;;20.50;99.90;;;;;;4927234;29;20130;-76
2023/05/19 11:19:58;;;;;;;13.52;7.25;;;20.70;99.90;;;;;;4919217;29;20028;-77
2023/05/19 11:22:25;;;;;;;13.38;7.30;;;20.60;99.90;;;;;;4926540;29;20375;-76
2023/05/19 11:24:54;;;;;;;12.07;7.38;;;20.60;99.90;;;;;;4935942;29;20038;-76
2023/05/19 11:27:20;;;;;;;13.10;7.72;;;20.50;99.90;;;;;;4937169;29;20042;-77
2023/05/19 11:29:47;;;;;;;12.90;7.57;;;20.40;99.90;;;;;;4937176;29;20031;-77
2023/05/19 11:32:14;;;;;;;13.25;8.45;;;20.50;99.90;;;;;;4937195;29;20456;-77
2023/05/19 11:34:40;;;;;;;11.65;7.13;;;20.30;99.90;;;;;;4930852;29;20095;-75
2023/05/19 11:37:07;;;;;;;13.55;7.53;;;19.90;99.90;;;;;;4921290;29;20039;-76
2023/05/19 11:39:33;;;;;;;12.90;8.10;;;20.00;99.90;;;;;;4918164;29;20016;-76
2023/05/19 11:41:59;;;;;;;13.48;7.45;;;20.10;99.90;;;;;;4917828;29;20020;-75
2023/05/19 11:44:25;;;;;;;14.10;7.25;;;20.20;99.90;;;;;;4916433;29;20032;-75
2023/05/19 11:46:51;;;;;;;12.75;7.40;;;20.00;99.90;;;;;;4921456;29;20043;-76
2023/05/19 11:49:17;;;;;;;12.00;7.03;;;20.20;99.90;;;;;;4935154;29;20038;-75
2023/05/19 11:51:44;;;;;;;13.38;7.43;;;20.50;99.90;;;;;;4936478;29;20035;-74
2023/05/19 11:54:11;;;;;;;14.13;7.90;;;20.60;99.90;;;;;;4936660;29;20034;-77
2023/05/19 11:56:41;;;;;;;12.52;7.55;;;20.70;99.90;;;;;;4935331;29;20070;-77
2023/05/19 11:59:08;;;;;;;12.82;7.20;;;20.60;99.80;;;;;;4936566;29;20047;-77
2023/05/19 12:01:34;;;;;;;14.02;8.32;;;20.70;99.50;;;;;;4936424;29;20024;-75
2023/05/19 12:04:09;;;;;;;12.85;7.88;;;20.70;99.90;;;;;;4936854;29;20110;-75
2023/05/19 12:06:36;;;;;;;10.45;7.38;;;20.90;99.90;;;;;;4936505;29;20419;-76
2023/05/19 12:09:04;;;;;;;14.88;8.10;;;21.00;99.90;;;;;;4936346;29;20030;-76
2023/05/19 12:11:30;;;;;;;11.00;7.13;;;21.20;99.90;;;;;;4936071;29;20044;-75
2023/05/19 12:14:00;;;;;;;16.88;9.15;;;21.30;99.90;;;;;;4936446;29;20065;-75
2023/05/19 12:16:33;;;;;;;15.40;8.13;;;21.50;99.90;;;;;;4936450;29;20032;-75
2023/05/19 12:18:59;;;;;;;15.18;9.38;;;21.50;99.90;;;;;;4936305;29;20179;-74
2023/05/19 12:21:25;;;;;;;14.25;8.43;;;21.50;99.90;;;;;;4936163;29;20023;-76
2023/05/19 12:23:51;;;;;;;15.95;10.48;;;21.40;99.90;;;;;;4918922;29;20036;-76
2023/05/19 12:26:18;;;;;;;18.65;9.10;;;21.70;99.90;;;;;;4935956;29;20042;-75
2023/05/19 12:28:45;;;;;;;15.45;9.90;;;21.50;99.90;;;;;;4935967;29;20032;-75
2023/05/19 12:31:11;;;;;;;16.90;9.77;;;21.70;99.90;;;;;;4936065;29;20439;-74
2023/05/19 12:33:36;;;;;;;15.73;9.20;;;21.90;99.40;;;;;;4935983;29;20475;-75
2023/05/19 12:36:03;;;;;;;13.60;8.95;;;21.80;99.90;;;;;;4918491;29;20040;-74
2023/05/19 12:38:29;;;;;;;16.02;8.50;;;22.00;99.20;;;;;;4935846;29;20123;-76
2023/05/19 12:40:58;;;;;;;23.05;9.63;;;22.10;99.90;;;;;;4935470;29;20103;-75
2023/05/19 12:43:24;;;;;;;14.93;10.27;;;22.00;98.90;;;;;;4936070;29;20236;-75